sensor_id;sensor_type;location;lat;lon;timestamp;pressure;altitude;pressure_sealevel;temperature;humidity
24666;BME280;29726;53.532;-1.478;2023-06-22T00:02:17;100798.44;;;25.10;nan
24666;BME280;29726;53.532;-1.478;2023-06-22T00:05:01;100782.91;;;24.98;nan
24666;BME280;29726;53.532;-1.478;2023-06-22T00:07:45;100792.28;;;25.06;nan
24666;BME280;29726;53.532;-1.478;2023-06-22T00:10:28;100807.91;;;25.05;nan
24666;BME280;29726;53.532;-1.478;2023-06-22T00:13:13;100807.16;;;25.04;nan
24666;BME280;29726;53.532;-1.478;2023-06-22T00:15:58;100779.59;;;24.86;nan
24666;BME280;29726;53.532;-1.478;2023-06-22T00:18:42;100796.00;;;24.93;nan
24666;BME280;29726;53.532;-1.478;2023-06-22T00:21:30;100799.44;;;24.92;nan
24666;BME280;29726;53.532;-1.478;2023-06-22T00:24:14;100792.53;;;24.87;nan
24666;BME280;29726;53.532;-1.478;2023-06-22T00:26:58;100794.78;;;24.81;nan
24666;BME280;29726;53.532;-1.478;2023-06-22T00:32:26;100798.19;;;24.80;nan
24666;BME280;29726;53.532;-1.478;2023-06-22T00:35:11;100785.19;;;24.71;nan
24666;BME280;29726;53.532;-1.478;2023-06-22T00:37:57;100785.88;;;24.64;nan
24666;BME280;29726;53.532;-1.478;2023-06-22T00:43:28;100787.72;;;24.54;nan
24666;BME280;29726;53.532;-1.478;2023-06-22T00:46:12;100804.34;;;24.63;nan
24666;BME280;29726;53.532;-1.478;2023-06-22T00:48:56;100780.78;;;24.50;nan
24666;BME280;29726;53.532;-1.478;2023-06-22T00:51:41;100798.16;;;24.52;nan
24666;BME280;29726;53.532;-1.478;2023-06-22T00:54:29;100758.91;;;24.32;nan
24666;BME280;29726;53.532;-1.478;2023-06-22T00:57:14;100791.47;;;24.49;nan
24666;BME280;29726;53.532;-1.478;2023-06-22T01:00:02;100783.38;;;24.40;nan
24666;BME280;29726;53.532;-1.478;2023-06-22T01:02:53;100802.03;;;24.41;nan
24666;BME280;29726;53.532;-1.478;2023-06-22T01:05:38;100803.06;;;24.31;nan
24666;BME280;29726;53.532;-1.478;2023-06-22T01:08:42;100813.34;;;24.34;nan
24666;BME280;29726;53.532;-1.478;2023-06-22T01:11:44;100781.97;;;24.13;nan
24666;BME280;29726;53.532;-1.478;2023-06-22T01:14:39;100806.81;;;24.26;nan
24666;BME280;29726;53.532;-1.478;2023-06-22T01:17:26;100797.22;;;24.16;nan
24666;BME280;29726;53.532;-1.478;2023-06-22T01:20:13;100808.25;;;24.19;nan
24666;BME280;29726;53.532;-1.478;2023-06-22T01:23:26;100824.22;;;24.15;nan
24666;BME280;29726;53.532;-1.478;2023-06-22T01:28:58;100811.84;;;23.99;nan
24666;BME280;29726;53.532;-1.478;2023-06-22T01:31:44;100802.66;;;23.93;nan
24666;BME280;29726;53.532;-1.478;2023-06-22T01:34:30;100810.66;;;23.95;nan
24666;BME280;29726;53.532;-1.478;2023-06-22T01:37:16;100796.84;;;23.86;nan
24666;BME280;29726;53.532;-1.478;2023-06-22T01:40:01;100804.44;;;23.83;nan
24666;BME280;29726;53.532;-1.478;2023-06-22T01:45:32;100832.63;;;23.87;nan
24666;BME280;29726;53.532;-1.478;2023-06-22T01:51:02;100838.88;;;23.85;nan
24666;BME280;29726;53.532;-1.478;2023-06-22T01:53:46;100821.84;;;23.80;nan
24666;BME280;29726;53.532;-1.478;2023-06-22T01:56:31;100821.34;;;23.69;nan
24666;BME280;29726;53.532;-1.478;2023-06-22T01:59:29;100832.06;;;23.75;nan
24666;BME280;29726;53.532;-1.478;2023-06-22T02:02:19;100814.78;;;23.61;nan
24666;BME280;29726;53.532;-1.478;2023-06-22T02:05:09;100833.72;;;23.71;nan
24666;BME280;29726;53.532;-1.478;2023-06-22T02:10:52;100848.31;;;23.68;nan
24666;BME280;29726;53.532;-1.478;2023-06-22T02:16:27;100836.81;;;23.60;nan
24666;BME280;29726;53.532;-1.478;2023-06-22T02:19:13;100836.38;;;23.56;nan
24666;BME280;29726;53.532;-1.478;2023-06-22T02:21:59;100836.69;;;23.53;nan
24666;BME280;29726;53.532;-1.478;2023-06-22T02:24:43;100839.00;;;23.54;nan
24666;BME280;29726;53.532;-1.478;2023-06-22T02:27:27;100829.38;;;23.44;nan
24666;BME280;29726;53.532;-1.478;2023-06-22T02:32:55;100830.91;;;23.45;nan
24666;BME280;29726;53.532;-1.478;2023-06-22T02:35:43;100838.47;;;23.43;nan
24666;BME280;29726;53.532;-1.478;2023-06-22T02:38:31;100827.38;;;23.39;nan
24666;BME280;29726;53.532;-1.478;2023-06-22T02:41:19;100842.22;;;23.38;nan
24666;BME280;29726;53.532;-1.478;2023-06-22T02:44:04;100842.22;;;23.38;nan
24666;BME280;29726;53.532;-1.478;2023-06-22T02:46:48;100840.47;;;23.35;nan
24666;BME280;29726;53.532;-1.478;2023-06-22T02:49:32;100848.22;;;23.34;nan
24666;BME280;29726;53.532;-1.478;2023-06-22T02:52:16;100787.28;;;23.24;nan
24666;BME280;29726;53.532;-1.478;2023-06-22T02:55:00;100833.22;;;23.21;nan
24666;BME280;29726;53.532;-1.478;2023-06-22T02:57:45;100831.44;;;23.18;nan
24666;BME280;29726;53.532;-1.478;2023-06-22T03:00:30;100842.75;;;23.23;nan
24666;BME280;29726;53.532;-1.478;2023-06-22T03:03:15;100843.81;;;23.20;nan
24666;BME280;29726;53.532;-1.478;2023-06-22T03:08:44;100826.50;;;23.05;nan
24666;BME280;29726;53.532;-1.478;2023-06-22T03:14:12;100844.78;;;23.10;nan
24666;BME280;29726;53.532;-1.478;2023-06-22T03:16:56;100782.94;;;22.66;nan
24666;BME280;29726;53.532;-1.478;2023-06-22T03:19:45;100846.66;;;23.07;nan
24666;BME280;29726;53.532;-1.478;2023-06-22T03:22:29;100780.94;;;22.61;nan
24666;BME280;29726;53.532;-1.478;2023-06-22T03:25:13;100828.41;;;22.84;nan
24666;BME280;29726;53.532;-1.478;2023-06-22T03:27:57;100838.41;;;22.91;nan
24666;BME280;29726;53.532;-1.478;2023-06-22T03:30:40;100852.22;;;23.00;nan
24666;BME280;29726;53.532;-1.478;2023-06-22T03:36:08;100842.22;;;22.93;nan
24666;BME280;29726;53.532;-1.478;2023-06-22T03:38:52;100829.19;;;22.85;nan
24666;BME280;29726;53.532;-1.478;2023-06-22T03:44:20;100830.28;;;22.82;nan
24666;BME280;29726;53.532;-1.478;2023-06-22T03:47:04;100841.78;;;22.89;nan
24666;BME280;29726;53.532;-1.478;2023-06-22T03:49:50;100813.19;;;22.69;nan
24666;BME280;29726;53.532;-1.478;2023-06-22T03:52:38;100819.09;;;22.71;nan
24666;BME280;29726;53.532;-1.478;2023-06-22T03:55:22;100888.00;;;22.82;nan
24666;BME280;29726;53.532;-1.478;2023-06-22T03:58:06;100832.16;;;22.79;nan
24666;BME280;29726;53.532;-1.478;2023-06-22T04:00:52;100845.81;;;22.81;nan
24666;BME280;29726;53.532;-1.478;2023-06-22T04:03:37;100845.38;;;22.77;nan
24666;BME280;29726;53.532;-1.478;2023-06-22T04:09:06;100847.25;;;22.74;nan
24666;BME280;29726;53.532;-1.478;2023-06-22T04:17:18;100846.34;;;22.66;nan
24666;BME280;29726;53.532;-1.478;2023-06-22T04:20:03;100779.19;;;22.26;nan
24666;BME280;29726;53.532;-1.478;2023-06-22T04:22:48;100843.25;;;22.64;nan
24666;BME280;29726;53.532;-1.478;2023-06-22T04:25:32;100836.13;;;22.58;nan
24666;BME280;29726;53.532;-1.478;2023-06-22T04:28:17;100836.34;;;22.60;nan
24666;BME280;29726;53.532;-1.478;2023-06-22T04:31:02;100907.13;;;22.50;nan
24666;BME280;29726;53.532;-1.478;2023-06-22T04:33:46;100838.22;;;22.57;nan
24666;BME280;29726;53.532;-1.478;2023-06-22T04:36:30;100833.38;;;22.52;nan
24666;BME280;29726;53.532;-1.478;2023-06-22T04:39:20;100837.00;;;22.53;nan
24666;BME280;29726;53.532;-1.478;2023-06-22T04:42:05;100839.59;;;22.51;nan
24666;BME280;29726;53.532;-1.478;2023-06-22T04:44:49;100841.44;;;22.48;nan
24666;BME280;29726;53.532;-1.478;2023-06-22T04:47:33;100842.97;;;22.49;nan
24666;BME280;29726;53.532;-1.478;2023-06-22T04:53:04;100837.63;;;22.46;nan
24666;BME280;29726;53.532;-1.478;2023-06-22T04:55:49;100847.94;;;22.49;nan
24666;BME280;29726;53.532;-1.478;2023-06-22T04:58:33;100848.56;;;22.42;nan
24666;BME280;29726;53.532;-1.478;2023-06-22T05:01:17;100835.31;;;22.44;nan
24666;BME280;29726;53.532;-1.478;2023-06-22T05:04:03;100831.50;;;22.42;nan
24666;BME280;29726;53.532;-1.478;2023-06-22T05:06:50;100831.50;;;22.42;nan
24666;BME280;29726;53.532;-1.478;2023-06-22T05:09:33;100841.00;;;22.44;nan
24666;BME280;29726;53.532;-1.478;2023-06-22T05:12:17;100837.19;;;22.42;nan
24666;BME280;29726;53.532;-1.478;2023-06-22T05:15:01;100842.88;;;22.42;nan
24666;BME280;29726;53.532;-1.478;2023-06-22T05:17:46;100829.44;;;22.37;nan
24666;BME280;29726;53.532;-1.478;2023-06-22T05:23:14;100834.47;;;22.31;nan
24666;BME280;29726;53.532;-1.478;2023-06-22T05:25:58;100843.00;;;22.31;nan
24666;BME280;29726;53.532;-1.478;2023-06-22T05:28:42;100846.41;;;22.29;nan
24666;BME280;29726;53.532;-1.478;2023-06-22T05:31:29;100842.69;;;22.34;nan
24666;BME280;29726;53.532;-1.478;2023-06-22T05:34:14;100836.22;;;22.34;nan
24666;BME280;29726;53.532;-1.478;2023-06-22T05:36:58;100855.63;;;22.35;nan
24666;BME280;29726;53.532;-1.478;2023-06-22T05:39:44;100861.31;;;22.35;nan
24666;BME280;29726;53.532;-1.478;2023-06-22T05:42:28;100853.63;;;22.30;nan
24666;BME280;29726;53.532;-1.478;2023-06-22T05:47:56;100853.16;;;22.26;nan
24666;BME280;29726;53.532;-1.478;2023-06-22T05:50:42;100854.84;;;22.35;nan
24666;BME280;29726;53.532;-1.478;2023-06-22T05:53:25;100837.88;;;22.29;nan
24666;BME280;29726;53.532;-1.478;2023-06-22T05:56:09;100862.06;;;22.36;nan
24666;BME280;29726;53.532;-1.478;2023-06-22T05:58:53;100847.34;;;22.37;nan
24666;BME280;29726;53.532;-1.478;2023-06-22T06:04:21;100815.94;;;22.24;nan
24666;BME280;29726;53.532;-1.478;2023-06-22T06:07:05;100840.38;;;22.33;nan
24666;BME280;29726;53.532;-1.478;2023-06-22T06:09:49;100828.84;;;22.25;nan
24666;BME280;29726;53.532;-1.478;2023-06-22T06:12:33;100860.69;;;22.42;nan
24666;BME280;29726;53.532;-1.478;2023-06-22T06:15:17;100841.88;;;22.39;nan
24666;BME280;29726;53.532;-1.478;2023-06-22T06:18:01;100836.22;;;22.34;nan
24666;BME280;29726;53.532;-1.478;2023-06-22T06:20:47;100891.94;;;22.48;nan
24666;BME280;29726;53.532;-1.478;2023-06-22T06:23:31;100831.50;;;22.42;nan
24666;BME280;29726;53.532;-1.478;2023-06-22T06:26:16;100828.41;;;22.40;nan
24666;BME280;29726;53.532;-1.478;2023-06-22T06:29:01;100787.38;;;22.17;nan
24666;BME280;29726;53.532;-1.478;2023-06-22T06:31:46;100833.06;;;22.56;nan
24666;BME280;29726;53.532;-1.478;2023-06-22T06:39:59;100825.81;;;22.55;nan
24666;BME280;29726;53.532;-1.478;2023-06-22T06:45:31;100837.72;;;22.72;nan
24666;BME280;29726;53.532;-1.478;2023-06-22T06:51:01;100836.63;;;22.75;nan
24666;BME280;29726;53.532;-1.478;2023-06-22T06:53:45;100831.81;;;22.83;nan
24666;BME280;29726;53.532;-1.478;2023-06-22T06:56:29;100835.97;;;22.82;nan
24666;BME280;29726;53.532;-1.478;2023-06-22T06:59:14;100854.50;;;22.88;nan
24666;BME280;29726;53.532;-1.478;2023-06-22T07:02:02;100863.16;;;22.96;nan
24666;BME280;29726;53.532;-1.478;2023-06-22T07:04:45;100865.94;;;23.01;nan
24666;BME280;29726;53.532;-1.478;2023-06-22T07:07:31;100860.97;;;23.02;nan
24666;BME280;29726;53.532;-1.478;2023-06-22T07:10:15;100862.94;;;23.07;nan
24666;BME280;29726;53.532;-1.478;2023-06-22T07:12:59;100857.41;;;23.14;nan
24666;BME280;29726;53.532;-1.478;2023-06-22T07:15:43;100864.31;;;23.19;nan
24666;BME280;29726;53.532;-1.478;2023-06-22T07:18:27;100868.28;;;23.29;nan
24666;BME280;29726;53.532;-1.478;2023-06-22T07:21:11;100848.53;;;23.31;nan
24666;BME280;29726;53.532;-1.478;2023-06-22T07:23:55;100851.28;;;23.36;nan
24666;BME280;29726;53.532;-1.478;2023-06-22T07:26:40;100868.94;;;23.48;nan
24666;BME280;29726;53.532;-1.478;2023-06-22T07:29:29;100866.00;;;23.53;nan
24666;BME280;29726;53.532;-1.478;2023-06-22T07:32:13;100852.72;;;23.56;nan
24666;BME280;29726;53.532;-1.478;2023-06-22T07:34:57;100856.22;;;23.62;nan
24666;BME280;29726;53.532;-1.478;2023-06-22T07:37:42;100859.41;;;23.71;nan
24666;BME280;29726;53.532;-1.478;2023-06-22T07:40:26;100870.66;;;23.76;nan
24666;BME280;29726;53.532;-1.478;2023-06-22T07:43:10;100853.69;;;23.71;nan
24666;BME280;29726;53.532;-1.478;2023-06-22T07:45:54;100856.88;;;23.80;nan
24666;BME280;29726;53.532;-1.478;2023-06-22T07:48:39;100853.47;;;23.82;nan
24666;BME280;29726;53.532;-1.478;2023-06-22T07:51:25;100866.94;;;23.94;nan
24666;BME280;29726;53.532;-1.478;2023-06-22T07:54:09;100866.53;;;23.90;nan
24666;BME280;29726;53.532;-1.478;2023-06-22T07:56:54;100865.59;;;24.08;nan
24666;BME280;29726;53.532;-1.478;2023-06-22T07:59:38;100867.56;;;24.13;nan
24666;BME280;29726;53.532;-1.478;2023-06-22T08:02:22;100873.25;;;24.13;nan
24666;BME280;29726;53.532;-1.478;2023-06-22T08:05:07;100877.19;;;24.23;nan
24666;BME280;29726;53.532;-1.478;2023-06-22T08:07:52;100848.91;;;24.12;nan
24666;BME280;29726;53.532;-1.478;2023-06-22T08:10:37;100859.72;;;24.27;nan
24666;BME280;29726;53.532;-1.478;2023-06-22T08:13:21;100871.22;;;24.34;nan
24666;BME280;29726;53.532;-1.478;2023-06-22T08:16:05;100862.78;;;24.29;nan
24666;BME280;29726;53.532;-1.478;2023-06-22T08:18:51;100871.44;;;24.36;nan
24666;BME280;29726;53.532;-1.478;2023-06-22T08:21:35;100882.72;;;24.42;nan
24666;BME280;29726;53.532;-1.478;2023-06-22T08:24:19;100869.47;;;24.31;nan
24666;BME280;29726;53.532;-1.478;2023-06-22T08:27:03;100872.44;;;24.39;nan
24666;BME280;29726;53.532;-1.478;2023-06-22T08:29:52;100862.53;;;24.40;nan
24666;BME280;29726;53.532;-1.478;2023-06-22T08:32:41;100880.41;;;24.53;nan
24666;BME280;29726;53.532;-1.478;2023-06-22T08:35:25;100884.44;;;24.58;nan
24666;BME280;29726;53.532;-1.478;2023-06-22T08:40:54;100880.69;;;24.63;nan
24666;BME280;29726;53.532;-1.478;2023-06-22T08:43:38;100856.13;;;24.60;nan
24666;BME280;29726;53.532;-1.478;2023-06-22T08:46:23;100872.19;;;24.70;nan
24666;BME280;29726;53.532;-1.478;2023-06-22T08:49:13;100870.66;;;24.69;nan
24666;BME280;29726;53.532;-1.478;2023-06-22T08:51:57;100874.69;;;24.74;nan
24666;BME280;29726;53.532;-1.478;2023-06-22T08:54:41;100869.31;;;24.70;nan
24666;BME280;29726;53.532;-1.478;2023-06-22T08:57:26;100844.91;;;24.62;nan
24666;BME280;29726;53.532;-1.478;2023-06-22T09:00:11;100861.81;;;24.80;nan
24666;BME280;29726;53.532;-1.478;2023-06-22T09:03:00;100889.69;;;24.87;nan
24666;BME280;29726;53.532;-1.478;2023-06-22T09:05:44;100869.47;;;24.85;nan
24666;BME280;29726;53.532;-1.478;2023-06-22T09:08:28;100877.06;;;24.83;nan
24666;BME280;29726;53.532;-1.478;2023-06-22T09:11:12;100886.69;;;24.93;nan
24666;BME280;29726;53.532;-1.478;2023-06-22T09:13:56;100897.41;;;25.00;nan
24666;BME280;29726;53.532;-1.478;2023-06-22T09:16:40;100902.84;;;25.11;nan
24666;BME280;29726;53.532;-1.478;2023-06-22T09:19:24;100901.03;;;25.21;nan
24666;BME280;29726;53.532;-1.478;2023-06-22T09:22:08;100889.28;;;25.24;nan
24666;BME280;29726;53.532;-1.478;2023-06-22T09:24:52;100893.97;;;25.42;nan
24666;BME280;29726;53.532;-1.478;2023-06-22T09:30:21;100891.41;;;25.59;nan
24666;BME280;29726;53.532;-1.478;2023-06-22T09:33:05;100898.59;;;25.80;nan
24666;BME280;29726;53.532;-1.478;2023-06-22T09:35:49;100854.22;;;25.59;nan
24666;BME280;29726;53.532;-1.478;2023-06-22T09:38:38;100864.41;;;25.75;nan
24666;BME280;29726;53.532;-1.478;2023-06-22T09:41:22;100894.41;;;26.17;nan
24666;BME280;29726;53.532;-1.478;2023-06-22T09:44:07;100876.84;;;26.13;nan
24666;BME280;29726;53.532;-1.478;2023-06-22T09:46:51;100902.50;;;26.41;nan
24666;BME280;29726;53.532;-1.478;2023-06-22T09:49:35;100892.97;;;26.46;nan
24666;BME280;29726;53.532;-1.478;2023-06-22T09:55:03;100857.03;;;26.37;nan
24666;BME280;29726;53.532;-1.478;2023-06-22T09:57:47;100853.63;;;26.46;nan
24666;BME280;29726;53.532;-1.478;2023-06-22T10:00:31;100913.31;;;26.85;nan
24666;BME280;29726;53.532;-1.478;2023-06-22T10:05:59;100914.50;;;27.05;nan
24666;BME280;29726;53.532;-1.478;2023-06-22T10:08:44;100900.34;;;27.07;nan
24666;BME280;29726;53.532;-1.478;2023-06-22T10:11:27;100900.75;;;27.18;nan
24666;BME280;29726;53.532;-1.478;2023-06-22T10:14:14;100891.56;;;27.20;nan
24666;BME280;29726;53.532;-1.478;2023-06-22T10:16:58;100898.03;;;27.35;nan
24666;BME280;29726;53.532;-1.478;2023-06-22T10:19:42;100909.91;;;27.46;nan
24666;BME280;29726;53.532;-1.478;2023-06-22T10:22:26;100888.50;;;27.40;nan
24666;BME280;29726;53.532;-1.478;2023-06-22T10:25:10;100914.66;;;27.59;nan
24666;BME280;29726;53.532;-1.478;2023-06-22T10:27:55;100912.19;;;27.63;nan
24666;BME280;29726;53.532;-1.478;2023-06-22T10:30:40;100921.75;;;27.73;nan
24666;BME280;29726;53.532;-1.478;2023-06-22T10:33:27;100908.34;;;27.68;nan
24666;BME280;29726;53.532;-1.478;2023-06-22T10:36:11;100911.03;;;27.73;nan
24666;BME280;29726;53.532;-1.478;2023-06-22T10:38:55;100909.28;;;27.85;nan
24666;BME280;29726;53.532;-1.478;2023-06-22T10:41:39;100920.56;;;27.91;nan
24666;BME280;29726;53.532;-1.478;2023-06-22T10:47:07;100926.63;;;28.10;nan
24666;BME280;29726;53.532;-1.478;2023-06-22T10:49:51;100920.47;;;28.13;nan
24666;BME280;29726;53.532;-1.478;2023-06-22T10:52:35;100870.03;;;27.88;nan
24666;BME280;29726;53.532;-1.478;2023-06-22T10:55:19;100919.69;;;28.20;nan
24666;BME280;29726;53.532;-1.478;2023-06-22T10:58:03;100921.56;;;28.25;nan
24666;BME280;29726;53.532;-1.478;2023-06-22T11:00:47;100912.38;;;28.27;nan
24666;BME280;29726;53.532;-1.478;2023-06-22T11:03:31;100902.41;;;28.28;nan
24666;BME280;29726;53.532;-1.478;2023-06-22T11:06:15;100918.66;;;28.40;nan
24666;BME280;29726;53.532;-1.478;2023-06-22T11:08:59;100925.34;;;28.43;nan
24666;BME280;29726;53.532;-1.478;2023-06-22T11:11:43;100922.25;;;28.48;nan
24666;BME280;29726;53.532;-1.478;2023-06-22T11:14:27;100907.13;;;28.48;nan
24666;BME280;29726;53.532;-1.478;2023-06-22T11:25:23;100917.22;;;28.56;nan
24666;BME280;29726;53.532;-1.478;2023-06-22T11:28:07;100918.34;;;28.61;nan
24666;BME280;29726;53.532;-1.478;2023-06-22T11:33:35;100909.59;;;28.51;nan
24666;BME280;29726;53.532;-1.478;2023-06-22T11:36:20;100921.00;;;28.66;nan
24666;BME280;29726;53.532;-1.478;2023-06-22T11:39:04;100929.63;;;28.66;nan
24666;BME280;29726;53.532;-1.478;2023-06-22T11:41:48;100922.53;;;28.67;nan
24666;BME280;29726;53.532;-1.478;2023-06-22T11:44:32;100912.19;;;28.64;nan
24666;BME280;29726;53.532;-1.478;2023-06-22T11:47:16;100931.34;;;28.69;nan
24666;BME280;29726;53.532;-1.478;2023-06-22T11:50:00;100919.84;;;28.69;nan
24666;BME280;29726;53.532;-1.478;2023-06-22T11:52:44;100917.53;;;28.68;nan
24666;BME280;29726;53.532;-1.478;2023-06-22T11:55:28;100931.69;;;28.73;nan
24666;BME280;29726;53.532;-1.478;2023-06-22T11:58:12;100925.59;;;28.69;nan
24666;BME280;29726;53.532;-1.478;2023-06-22T12:00:56;100890.00;;;28.57;nan
24666;BME280;29726;53.532;-1.478;2023-06-22T12:06:25;100935.13;;;28.72;nan
24666;BME280;29726;53.532;-1.478;2023-06-22T12:09:10;100942.84;;;28.69;nan
24666;BME280;29726;53.532;-1.478;2023-06-22T12:11:54;100937.47;;;28.66;nan
24666;BME280;29726;53.532;-1.478;2023-06-22T12:14:38;100932.13;;;28.62;nan
24666;BME280;29726;53.532;-1.478;2023-06-22T12:17:22;100921.09;;;28.51;nan
24666;BME280;29726;53.532;-1.478;2023-06-22T12:20:06;100938.25;;;28.66;nan
24666;BME280;29726;53.532;-1.478;2023-06-22T12:22:50;100940.56;;;28.60;nan
24666;BME280;29726;53.532;-1.478;2023-06-22T12:25:36;100928.31;;;28.60;nan
24666;BME280;29726;53.532;-1.478;2023-06-22T12:28:20;100926.03;;;28.58;nan
24666;BME280;29726;53.532;-1.478;2023-06-22T12:33:48;100921.84;;;28.52;nan
24666;BME280;29726;53.532;-1.478;2023-06-22T12:39:16;100915.00;;;28.47;nan
24666;BME280;29726;53.532;-1.478;2023-06-22T12:44:44;100915.38;;;28.44;nan
24666;BME280;29726;53.532;-1.478;2023-06-22T12:47:28;100897.06;;;28.32;nan
24666;BME280;29726;53.532;-1.478;2023-06-22T12:50:12;100910.44;;;28.37;nan
24666;BME280;29726;53.532;-1.478;2023-06-22T12:52:56;100893.59;;;28.26;nan
24666;BME280;29726;53.532;-1.478;2023-06-22T12:55:40;100887.47;;;28.29;nan
24666;BME280;29726;53.532;-1.478;2023-06-22T12:58:23;100874.47;;;28.21;nan
24666;BME280;29726;53.532;-1.478;2023-06-22T13:01:08;100883.28;;;28.23;nan
24666;BME280;29726;53.532;-1.478;2023-06-22T13:03:51;100892.84;;;28.25;nan
24666;BME280;29726;53.532;-1.478;2023-06-22T13:06:35;100881.41;;;28.18;nan
24666;BME280;29726;53.532;-1.478;2023-06-22T13:12:04;100860.34;;;28.15;nan
24666;BME280;29726;53.532;-1.478;2023-06-22T13:17:31;100869.53;;;28.21;nan
24666;BME280;29726;53.532;-1.478;2023-06-22T13:20:15;100867.56;;;28.24;nan
24666;BME280;29726;53.532;-1.478;2023-06-22T13:22:59;100848.63;;;28.21;nan
24666;BME280;29726;53.532;-1.478;2023-06-22T13:25:43;100841.38;;;28.20;nan
24666;BME280;29726;53.532;-1.478;2023-06-22T13:28:27;100860.66;;;28.27;nan
24666;BME280;29726;53.532;-1.478;2023-06-22T13:31:12;100836.97;;;28.19;nan
24666;BME280;29726;53.532;-1.478;2023-06-22T13:33:56;100870.78;;;28.35;nan
24666;BME280;29726;53.532;-1.478;2023-06-22T13:36:40;100870.22;;;28.29;nan
24666;BME280;29726;53.532;-1.478;2023-06-22T13:39:24;100873.66;;;28.35;nan
24666;BME280;29726;53.532;-1.478;2023-06-22T13:42:08;100878.41;;;28.40;nan
24666;BME280;29726;53.532;-1.478;2023-06-22T13:44:52;100861.81;;;28.31;nan
24666;BME280;29726;53.532;-1.478;2023-06-22T13:50:20;100880.88;;;28.51;nan
24666;BME280;29726;53.532;-1.478;2023-06-22T13:53:04;100883.56;;;28.49;nan
24666;BME280;29726;53.532;-1.478;2023-06-22T13:55:48;100879.69;;;28.54;nan
24666;BME280;29726;53.532;-1.478;2023-06-22T14:01:16;100879.34;;;28.50;nan
24666;BME280;29726;53.532;-1.478;2023-06-22T14:04:00;100885.03;;;28.58;nan
24666;BME280;29726;53.532;-1.478;2023-06-22T14:06:45;100890.97;;;28.60;nan
24666;BME280;29726;53.532;-1.478;2023-06-22T14:09:29;100880.09;;;28.51;nan
24666;BME280;29726;53.532;-1.478;2023-06-22T14:12:13;100848.03;;;28.30;nan
24666;BME280;29726;53.532;-1.478;2023-06-22T14:14:57;100891.88;;;28.62;nan
24666;BME280;29726;53.532;-1.478;2023-06-22T14:17:41;100902.22;;;28.65;nan
24666;BME280;29726;53.532;-1.478;2023-06-22T14:20:25;100891.09;;;28.69;nan
24666;BME280;29726;53.532;-1.478;2023-06-22T14:23:09;100906.75;;;28.76;nan
24666;BME280;29726;53.532;-1.478;2023-06-22T14:25:53;100901.78;;;28.76;nan
24666;BME280;29726;53.532;-1.478;2023-06-22T14:28:37;100847.56;;;28.48;nan
24666;BME280;29726;53.532;-1.478;2023-06-22T14:31:21;100908.22;;;28.84;nan
24666;BME280;29726;53.532;-1.478;2023-06-22T14:34:05;100905.16;;;28.90;nan
24666;BME280;29726;53.532;-1.478;2023-06-22T14:36:49;100916.25;;;28.93;nan
24666;BME280;29726;53.532;-1.478;2023-06-22T14:39:33;100909.31;;;28.96;nan
24666;BME280;29726;53.532;-1.478;2023-06-22T14:42:17;100913.31;;;29.01;nan
24666;BME280;29726;53.532;-1.478;2023-06-22T14:47:46;100913.69;;;29.05;nan
24666;BME280;29726;53.532;-1.478;2023-06-22T14:50:30;100918.38;;;29.17;nan
24666;BME280;29726;53.532;-1.478;2023-06-22T14:53:14;100897.50;;;29.09;nan
24666;BME280;29726;53.532;-1.478;2023-06-22T14:55:58;100922.50;;;29.23;nan
24666;BME280;29726;53.532;-1.478;2023-06-22T14:58:44;100880.50;;;29.04;nan
24666;BME280;29726;53.532;-1.478;2023-06-22T15:01:29;100907.91;;;29.29;nan
24666;BME280;29726;53.532;-1.478;2023-06-22T15:04:13;100940.44;;;29.39;nan
24666;BME280;29726;53.532;-1.478;2023-06-22T15:06:57;100930.97;;;29.46;nan
24666;BME280;29726;53.532;-1.478;2023-06-22T15:09:41;100916.59;;;29.46;nan
24666;BME280;29726;53.532;-1.478;2023-06-22T15:12:26;100915.81;;;29.45;nan
24666;BME280;29726;53.532;-1.478;2023-06-22T15:15:10;100928.72;;;29.61;nan
24666;BME280;29726;53.532;-1.478;2023-06-22T15:17:54;100936.34;;;29.66;nan
24666;BME280;29726;53.532;-1.478;2023-06-22T15:20:38;100908.41;;;29.59;nan
24666;BME280;29726;53.532;-1.478;2023-06-22T15:23:22;100904.50;;;29.64;nan
24666;BME280;29726;53.532;-1.478;2023-06-22T15:26:06;100915.69;;;29.77;nan
24666;BME280;29726;53.532;-1.478;2023-06-22T15:28:50;100908.34;;;29.84;nan
24666;BME280;29726;53.532;-1.478;2023-06-22T15:31:34;100911.63;;;29.80;nan
24666;BME280;29726;53.532;-1.478;2023-06-22T15:34:18;100915.50;;;29.92;nan
24666;BME280;29726;53.532;-1.478;2023-06-22T15:37:02;100913.41;;;29.93;nan
24666;BME280;29726;53.532;-1.478;2023-06-22T15:39:46;100913.00;;;29.96;nan
24666;BME280;29726;53.532;-1.478;2023-06-22T15:42:31;100892.66;;;29.94;nan
24666;BME280;29726;53.532;-1.478;2023-06-22T15:45:14;100905.63;;;30.03;nan
24666;BME280;29726;53.532;-1.478;2023-06-22T15:47:58;100902.16;;;30.04;nan
24666;BME280;29726;53.532;-1.478;2023-06-22T15:50:42;100908.59;;;30.12;nan
24666;BME280;29726;53.532;-1.478;2023-06-22T15:53:26;100902.81;;;30.12;nan
24666;BME280;29726;53.532;-1.478;2023-06-22T15:56:10;100889.88;;;30.04;nan
24666;BME280;29726;53.532;-1.478;2023-06-22T15:58:54;100911.22;;;30.18;nan
24666;BME280;29726;53.532;-1.478;2023-06-22T16:01:40;100898.25;;;30.09;nan
24666;BME280;29726;53.532;-1.478;2023-06-22T16:04:24;100908.34;;;30.18;nan
24666;BME280;29726;53.532;-1.478;2023-06-22T16:07:08;100903.16;;;30.16;nan
24666;BME280;29726;53.532;-1.478;2023-06-22T16:09:52;100885.22;;;30.08;nan
24666;BME280;29726;53.532;-1.478;2023-06-22T16:12:36;100891.63;;;30.16;nan
24666;BME280;29726;53.532;-1.478;2023-06-22T16:15:25;100896.06;;;30.17;nan
24666;BME280;29726;53.532;-1.478;2023-06-22T16:18:09;100875.47;;;30.04;nan
24666;BME280;29726;53.532;-1.478;2023-06-22T16:20:53;100887.50;;;30.10;nan
24666;BME280;29726;53.532;-1.478;2023-06-22T16:23:36;100883.84;;;30.09;nan
24666;BME280;29726;53.532;-1.478;2023-06-22T16:26:21;100883.59;;;30.15;nan